sensor_id;sensor_type;location;lat;lon;timestamp;temperature;humidity
4811;DHT22;2419;51.276;6.472;2024-02-14T00:01:00;9.00;99.90
4811;DHT22;2419;51.276;6.472;2024-02-14T00:03:28;9.00;99.90
4811;DHT22;2419;51.276;6.472;2024-02-14T00:05:56;9.00;99.90
4811;DHT22;2419;51.276;6.472;2024-02-14T00:08:24;9.00;99.90
4811;DHT22;2419;51.276;6.472;2024-02-14T00:10:53;9.10;99.90
4811;DHT22;2419;51.276;6.472;2024-02-14T00:13:21;9.10;99.90
4811;DHT22;2419;51.276;6.472;2024-02-14T00:15:49;9.10;99.90
4811;DHT22;2419;51.276;6.472;2024-02-14T00:18:19;9.20;99.90
4811;DHT22;2419;51.276;6.472;2024-02-14T00:20:49;9.20;99.90
4811;DHT22;2419;51.276;6.472;2024-02-14T00:23:18;9.30;99.90
4811;DHT22;2419;51.276;6.472;2024-02-14T00:25:46;9.20;99.90
4811;DHT22;2419;51.276;6.472;2024-02-14T00:28:14;9.20;99.90
4811;DHT22;2419;51.276;6.472;2024-02-14T00:30:42;9.30;99.90
4811;DHT22;2419;51.276;6.472;2024-02-14T00:33:10;9.30;99.90
4811;DHT22;2419;51.276;6.472;2024-02-14T00:35:39;9.30;99.90
4811;DHT22;2419;51.276;6.472;2024-02-14T00:38:07;9.20;99.90
4811;DHT22;2419;51.276;6.472;2024-02-14T00:40:36;9.10;99.90
4811;DHT22;2419;51.276;6.472;2024-02-14T00:43:04;9.10;99.90
4811;DHT22;2419;51.276;6.472;2024-02-14T00:45:32;9.10;99.90
4811;DHT22;2419;51.276;6.472;2024-02-14T00:48:01;9.10;99.90
4811;DHT22;2419;51.276;6.472;2024-02-14T00:50:30;9.10;99.90
4811;DHT22;2419;51.276;6.472;2024-02-14T00:53:01;9.20;99.90
4811;DHT22;2419;51.276;6.472;2024-02-14T00:55:30;9.20;99.90
4811;DHT22;2419;51.276;6.472;2024-02-14T00:57:59;9.20;99.90
4811;DHT22;2419;51.276;6.472;2024-02-14T01:00:27;9.20;99.90
4811;DHT22;2419;51.276;6.472;2024-02-14T01:02:55;9.30;99.90
4811;DHT22;2419;51.276;6.472;2024-02-14T01:05:24;9.30;99.90
4811;DHT22;2419;51.276;6.472;2024-02-14T01:07:53;9.30;99.90
4811;DHT22;2419;51.276;6.472;2024-02-14T01:10:23;9.40;99.90
4811;DHT22;2419;51.276;6.472;2024-02-14T01:12:51;9.40;99.90
4811;DHT22;2419;51.276;6.472;2024-02-14T01:15:19;9.40;99.90
4811;DHT22;2419;51.276;6.472;2024-02-14T01:17:48;9.50;99.90
4811;DHT22;2419;51.276;6.472;2024-02-14T01:20:17;9.50;99.90
4811;DHT22;2419;51.276;6.472;2024-02-14T01:22:45;9.50;99.90
4811;DHT22;2419;51.276;6.472;2024-02-14T01:25:13;9.60;99.90
4811;DHT22;2419;51.276;6.472;2024-02-14T01:27:43;9.50;99.90
4811;DHT22;2419;51.276;6.472;2024-02-14T01:30:11;9.60;99.90
4811;DHT22;2419;51.276;6.472;2024-02-14T01:32:39;9.60;99.90
4811;DHT22;2419;51.276;6.472;2024-02-14T01:35:08;9.60;99.90
4811;DHT22;2419;51.276;6.472;2024-02-14T01:37:36;9.60;99.90
4811;DHT22;2419;51.276;6.472;2024-02-14T01:40:05;9.60;99.90
4811;DHT22;2419;51.276;6.472;2024-02-14T01:42:34;9.60;99.90
4811;DHT22;2419;51.276;6.472;2024-02-14T01:45:05;9.60;99.90
4811;DHT22;2419;51.276;6.472;2024-02-14T01:47:33;9.60;99.90
4811;DHT22;2419;51.276;6.472;2024-02-14T01:50:02;9.60;99.90
4811;DHT22;2419;51.276;6.472;2024-02-14T01:52:31;9.70;99.90
4811;DHT22;2419;51.276;6.472;2024-02-14T01:54:59;9.70;99.90
4811;DHT22;2419;51.276;6.472;2024-02-14T01:57:27;9.70;99.90
4811;DHT22;2419;51.276;6.472;2024-02-14T01:59:56;9.70;99.90
4811;DHT22;2419;51.276;6.472;2024-02-14T02:02:27;9.70;99.90
4811;DHT22;2419;51.276;6.472;2024-02-14T02:04:55;9.70;99.90
4811;DHT22;2419;51.276;6.472;2024-02-14T02:07:23;9.70;99.90
4811;DHT22;2419;51.276;6.472;2024-02-14T02:09:52;9.70;99.90
4811;DHT22;2419;51.276;6.472;2024-02-14T02:12:20;9.70;99.90
4811;DHT22;2419;51.276;6.472;2024-02-14T02:14:48;9.70;99.90
4811;DHT22;2419;51.276;6.472;2024-02-14T02:17:17;9.80;99.90
4811;DHT22;2419;51.276;6.472;2024-02-14T02:19:46;9.80;99.90
4811;DHT22;2419;51.276;6.472;2024-02-14T02:22:14;9.80;99.90
4811;DHT22;2419;51.276;6.472;2024-02-14T02:24:44;9.80;99.90
4811;DHT22;2419;51.276;6.472;2024-02-14T02:27:12;9.80;99.90
4811;DHT22;2419;51.276;6.472;2024-02-14T02:29:43;9.80;99.90
4811;DHT22;2419;51.276;6.472;2024-02-14T02:32:11;9.80;99.90
4811;DHT22;2419;51.276;6.472;2024-02-14T02:34:39;9.90;99.90
4811;DHT22;2419;51.276;6.472;2024-02-14T02:37:07;9.90;99.90
4811;DHT22;2419;51.276;6.472;2024-02-14T02:39:36;9.90;99.90
4811;DHT22;2419;51.276;6.472;2024-02-14T02:42:05;10.00;99.90
4811;DHT22;2419;51.276;6.472;2024-02-14T02:44:34;9.90;99.90
4811;DHT22;2419;51.276;6.472;2024-02-14T02:47:04;9.90;99.90
4811;DHT22;2419;51.276;6.472;2024-02-14T02:49:32;9.90;99.90
4811;DHT22;2419;51.276;6.472;2024-02-14T02:52:00;9.80;99.90
4811;DHT22;2419;51.276;6.472;2024-02-14T02:54:29;9.80;99.90
4811;DHT22;2419;51.276;6.472;2024-02-14T02:56:57;9.80;99.90
4811;DHT22;2419;51.276;6.472;2024-02-14T02:59:27;9.70;99.90
4811;DHT22;2419;51.276;6.472;2024-02-14T03:01:56;9.70;99.90
4811;DHT22;2419;51.276;6.472;2024-02-14T03:04:24;9.70;99.90
4811;DHT22;2419;51.276;6.472;2024-02-14T03:07:13;9.60;99.90
4811;DHT22;2419;51.276;6.472;2024-02-14T03:09:41;9.40;99.90
4811;DHT22;2419;51.276;6.472;2024-02-14T03:12:09;9.40;99.90
4811;DHT22;2419;51.276;6.472;2024-02-14T03:14:39;9.40;99.90
4811;DHT22;2419;51.276;6.472;2024-02-14T03:17:09;9.40;99.90
4811;DHT22;2419;51.276;6.472;2024-02-14T03:19:37;9.50;99.90
4811;DHT22;2419;51.276;6.472;2024-02-14T03:22:06;9.50;99.90
4811;DHT22;2419;51.276;6.472;2024-02-14T03:24:35;9.50;99.90
4811;DHT22;2419;51.276;6.472;2024-02-14T03:27:04;9.60;99.90
4811;DHT22;2419;51.276;6.472;2024-02-14T03:29:33;9.60;99.90
4811;DHT22;2419;51.276;6.472;2024-02-14T03:32:04;9.60;99.90
4811;DHT22;2419;51.276;6.472;2024-02-14T03:34:32;9.60;99.90
4811;DHT22;2419;51.276;6.472;2024-02-14T03:37:02;9.60;99.90
4811;DHT22;2419;51.276;6.472;2024-02-14T03:39:31;9.60;99.90
4811;DHT22;2419;51.276;6.472;2024-02-14T03:41:59;9.60;99.90
4811;DHT22;2419;51.276;6.472;2024-02-14T03:44:30;9.70;99.90
4811;DHT22;2419;51.276;6.472;2024-02-14T03:46:58;9.60;99.90
4811;DHT22;2419;51.276;6.472;2024-02-14T03:49:28;9.70;99.90
4811;DHT22;2419;51.276;6.472;2024-02-14T03:51:57;9.70;99.90
4811;DHT22;2419;51.276;6.472;2024-02-14T03:54:26;9.70;99.90
4811;DHT22;2419;51.276;6.472;2024-02-14T03:56:54;9.70;99.90
4811;DHT22;2419;51.276;6.472;2024-02-14T03:59:22;9.70;99.90
4811;DHT22;2419;51.276;6.472;2024-02-14T04:01:52;9.70;99.90
4811;DHT22;2419;51.276;6.472;2024-02-14T04:04:20;9.80;99.90
4811;DHT22;2419;51.276;6.472;2024-02-14T04:06:49;9.80;99.90
4811;DHT22;2419;51.276;6.472;2024-02-14T04:09:18;9.70;99.90
4811;DHT22;2419;51.276;6.472;2024-02-14T04:11:46;9.70;99.90
4811;DHT22;2419;51.276;6.472;2024-02-14T04:14:15;9.70;99.90
4811;DHT22;2419;51.276;6.472;2024-02-14T04:16:43;9.70;99.90
4811;DHT22;2419;51.276;6.472;2024-02-14T04:19:11;9.70;99.90
4811;DHT22;2419;51.276;6.472;2024-02-14T04:21:40;9.70;99.90
4811;DHT22;2419;51.276;6.472;2024-02-14T04:24:09;9.70;99.90
4811;DHT22;2419;51.276;6.472;2024-02-14T04:26:38;9.70;99.90
4811;DHT22;2419;51.276;6.472;2024-02-14T04:29:08;9.70;99.90
4811;DHT22;2419;51.276;6.472;2024-02-14T04:31:36;9.80;99.90
4811;DHT22;2419;51.276;6.472;2024-02-14T04:34:04;9.80;99.90
4811;DHT22;2419;51.276;6.472;2024-02-14T04:36:35;9.70;99.90
4811;DHT22;2419;51.276;6.472;2024-02-14T04:39:03;9.70;99.90
4811;DHT22;2419;51.276;6.472;2024-02-14T04:41:33;9.70;99.90
4811;DHT22;2419;51.276;6.472;2024-02-14T04:44:22;9.80;99.90
4811;DHT22;2419;51.276;6.472;2024-02-14T04:46:50;9.80;99.90
4811;DHT22;2419;51.276;6.472;2024-02-14T04:49:18;9.70;99.90
4811;DHT22;2419;51.276;6.472;2024-02-14T04:51:47;9.70;99.90
4811;DHT22;2419;51.276;6.472;2024-02-14T04:54:15;9.80;99.90
4811;DHT22;2419;51.276;6.472;2024-02-14T04:56:44;9.80;99.90
4811;DHT22;2419;51.276;6.472;2024-02-14T04:59:17;9.80;99.90
4811;DHT22;2419;51.276;6.472;2024-02-14T05:01:45;9.80;99.90
4811;DHT22;2419;51.276;6.472;2024-02-14T05:04:13;9.90;99.90
4811;DHT22;2419;51.276;6.472;2024-02-14T05:06:43;9.80;99.90
4811;DHT22;2419;51.276;6.472;2024-02-14T05:09:11;9.80;99.90
4811;DHT22;2419;51.276;6.472;2024-02-14T05:11:41;9.80;99.90
4811;DHT22;2419;51.276;6.472;2024-02-14T05:14:11;9.70;99.90
4811;DHT22;2419;51.276;6.472;2024-02-14T05:16:39;9.70;99.90
4811;DHT22;2419;51.276;6.472;2024-02-14T05:19:07;9.80;99.90
4811;DHT22;2419;51.276;6.472;2024-02-14T05:21:36;9.70;99.90
4811;DHT22;2419;51.276;6.472;2024-02-14T05:24:05;9.70;99.90
4811;DHT22;2419;51.276;6.472;2024-02-14T05:26:33;9.60;99.90
4811;DHT22;2419;51.276;6.472;2024-02-14T05:29:02;9.50;99.90
4811;DHT22;2419;51.276;6.472;2024-02-14T05:31:44;9.50;99.90
4811;DHT22;2419;51.276;6.472;2024-02-14T05:34:12;9.50;99.90
4811;DHT22;2419;51.276;6.472;2024-02-14T05:36:41;9.50;99.90
4811;DHT22;2419;51.276;6.472;2024-02-14T05:39:09;9.60;99.90
4811;DHT22;2419;51.276;6.472;2024-02-14T05:41:38;9.50;99.90
4811;DHT22;2419;51.276;6.472;2024-02-14T05:44:06;9.50;99.90
4811;DHT22;2419;51.276;6.472;2024-02-14T05:46:36;9.60;99.90
4811;DHT22;2419;51.276;6.472;2024-02-14T05:49:04;9.60;99.90
4811;DHT22;2419;51.276;6.472;2024-02-14T05:51:33;9.60;99.90
4811;DHT22;2419;51.276;6.472;2024-02-14T05:54:01;9.60;99.90
4811;DHT22;2419;51.276;6.472;2024-02-14T05:56:29;9.60;99.90
4811;DHT22;2419;51.276;6.472;2024-02-14T05:58:57;9.60;99.90
4811;DHT22;2419;51.276;6.472;2024-02-14T06:01:25;9.60;99.90
4811;DHT22;2419;51.276;6.472;2024-02-14T06:03:56;9.70;99.90
4811;DHT22;2419;51.276;6.472;2024-02-14T06:06:25;9.70;99.90
4811;DHT22;2419;51.276;6.472;2024-02-14T06:08:53;9.70;99.90
4811;DHT22;2419;51.276;6.472;2024-02-14T06:11:21;9.70;99.90
4811;DHT22;2419;51.276;6.472;2024-02-14T06:13:49;9.70;99.90
4811;DHT22;2419;51.276;6.472;2024-02-14T06:16:17;9.70;99.90
4811;DHT22;2419;51.276;6.472;2024-02-14T06:18:45;9.70;99.90
4811;DHT22;2419;51.276;6.472;2024-02-14T06:21:15;9.70;99.90
4811;DHT22;2419;51.276;6.472;2024-02-14T06:23:43;9.70;99.90
4811;DHT22;2419;51.276;6.472;2024-02-14T06:26:13;9.70;99.90
4811;DHT22;2419;51.276;6.472;2024-02-14T06:28:42;9.70;99.90
4811;DHT22;2419;51.276;6.472;2024-02-14T06:31:10;9.70;99.90
4811;DHT22;2419;51.276;6.472;2024-02-14T06:33:38;9.60;99.90
4811;DHT22;2419;51.276;6.472;2024-02-14T06:36:06;9.70;99.90
4811;DHT22;2419;51.276;6.472;2024-02-14T06:38:36;9.60;99.90
4811;DHT22;2419;51.276;6.472;2024-02-14T06:41:06;9.70;99.90
4811;DHT22;2419;51.276;6.472;2024-02-14T06:43:34;9.60;99.90
4811;DHT22;2419;51.276;6.472;2024-02-14T06:46:03;9.70;99.90
4811;DHT22;2419;51.276;6.472;2024-02-14T06:48:31;9.70;99.90
4811;DHT22;2419;51.276;6.472;2024-02-14T06:50:59;9.70;99.90
4811;DHT22;2419;51.276;6.472;2024-02-14T06:53:27;9.70;99.90
4811;DHT22;2419;51.276;6.472;2024-02-14T06:55:58;9.80;99.90
4811;DHT22;2419;51.276;6.472;2024-02-14T06:58:26;9.80;99.90
4811;DHT22;2419;51.276;6.472;2024-02-14T07:00:54;9.80;99.90
4811;DHT22;2419;51.276;6.472;2024-02-14T07:03:23;9.90;99.90
4811;DHT22;2419;51.276;6.472;2024-02-14T07:05:51;9.90;99.90
4811;DHT22;2419;51.276;6.472;2024-02-14T07:08:19;10.00;99.90
4811;DHT22;2419;51.276;6.472;2024-02-14T07:10:48;10.00;99.90
4811;DHT22;2419;51.276;6.472;2024-02-14T07:13:17;10.00;99.90
4811;DHT22;2419;51.276;6.472;2024-02-14T07:15:45;10.00;99.90
4811;DHT22;2419;51.276;6.472;2024-02-14T07:18:13;10.00;99.90
4811;DHT22;2419;51.276;6.472;2024-02-14T07:20:42;10.10;99.90
4811;DHT22;2419;51.276;6.472;2024-02-14T07:23:10;10.10;99.90
4811;DHT22;2419;51.276;6.472;2024-02-14T07:25:38;10.10;99.90
4811;DHT22;2419;51.276;6.472;2024-02-14T07:28:06;10.10;99.90
4811;DHT22;2419;51.276;6.472;2024-02-14T07:30:36;10.10;99.90
4811;DHT22;2419;51.276;6.472;2024-02-14T07:33:04;10.10;99.90
4811;DHT22;2419;51.276;6.472;2024-02-14T07:35:32;10.10;99.90
4811;DHT22;2419;51.276;6.472;2024-02-14T07:38:00;10.20;99.90
4811;DHT22;2419;51.276;6.472;2024-02-14T07:40:29;10.20;99.90
4811;DHT22;2419;51.276;6.472;2024-02-14T07:42:58;10.20;99.90
4811;DHT22;2419;51.276;6.472;2024-02-14T07:45:26;10.20;99.90
4811;DHT22;2419;51.276;6.472;2024-02-14T07:47:55;10.30;99.90
4811;DHT22;2419;51.276;6.472;2024-02-14T07:50:23;10.30;99.90
4811;DHT22;2419;51.276;6.472;2024-02-14T07:52:51;10.30;99.90
4811;DHT22;2419;51.276;6.472;2024-02-14T07:55:20;10.30;99.90
4811;DHT22;2419;51.276;6.472;2024-02-14T07:57:48;10.30;99.90
4811;DHT22;2419;51.276;6.472;2024-02-14T08:00:17;10.40;99.90
4811;DHT22;2419;51.276;6.472;2024-02-14T08:02:49;10.40;99.90
4811;DHT22;2419;51.276;6.472;2024-02-14T08:05:19;10.30;99.90
4811;DHT22;2419;51.276;6.472;2024-02-14T08:07:47;10.40;99.90
4811;DHT22;2419;51.276;6.472;2024-02-14T08:10:15;10.30;99.90
4811;DHT22;2419;51.276;6.472;2024-02-14T08:12:43;10.30;99.90
4811;DHT22;2419;51.276;6.472;2024-02-14T08:15:11;10.40;99.90
4811;DHT22;2419;51.276;6.472;2024-02-14T08:17:40;10.40;99.90
4811;DHT22;2419;51.276;6.472;2024-02-14T08:20:14;10.40;99.90
4811;DHT22;2419;51.276;6.472;2024-02-14T08:22:48;10.40;99.90
4811;DHT22;2419;51.276;6.472;2024-02-14T08:25:16;10.50;99.90
4811;DHT22;2419;51.276;6.472;2024-02-14T08:27:44;10.50;99.90
4811;DHT22;2419;51.276;6.472;2024-02-14T08:30:14;10.50;99.90
4811;DHT22;2419;51.276;6.472;2024-02-14T08:32:42;10.60;99.90
4811;DHT22;2419;51.276;6.472;2024-02-14T08:35:11;10.70;99.90
4811;DHT22;2419;51.276;6.472;2024-02-14T08:37:40;10.80;99.90
4811;DHT22;2419;51.276;6.472;2024-02-14T08:40:10;10.70;99.90
4811;DHT22;2419;51.276;6.472;2024-02-14T08:42:39;10.80;99.90
4811;DHT22;2419;51.276;6.472;2024-02-14T08:45:08;10.70;99.90
4811;DHT22;2419;51.276;6.472;2024-02-14T08:47:38;10.80;99.90
4811;DHT22;2419;51.276;6.472;2024-02-14T08:50:08;10.80;99.90
4811;DHT22;2419;51.276;6.472;2024-02-14T08:52:36;10.90;99.90
4811;DHT22;2419;51.276;6.472;2024-02-14T08:55:05;11.00;99.90
4811;DHT22;2419;51.276;6.472;2024-02-14T08:57:39;11.10;99.90
4811;DHT22;2419;51.276;6.472;2024-02-14T09:00:07;11.20;99.90
4811;DHT22;2419;51.276;6.472;2024-02-14T09:02:37;11.30;99.90
4811;DHT22;2419;51.276;6.472;2024-02-14T09:05:06;11.30;99.90
4811;DHT22;2419;51.276;6.472;2024-02-14T09:07:34;11.20;99.90
4811;DHT22;2419;51.276;6.472;2024-02-14T09:10:03;11.20;99.90
4811;DHT22;2419;51.276;6.472;2024-02-14T09:12:33;11.20;99.90
4811;DHT22;2419;51.276;6.472;2024-02-14T09:15:03;11.30;99.90
4811;DHT22;2419;51.276;6.472;2024-02-14T09:17:31;11.30;99.90
4811;DHT22;2419;51.276;6.472;2024-02-14T09:20:00;11.30;99.90
4811;DHT22;2419;51.276;6.472;2024-02-14T09:22:29;11.30;99.90
4811;DHT22;2419;51.276;6.472;2024-02-14T09:24:57;11.30;99.90
4811;DHT22;2419;51.276;6.472;2024-02-14T09:27:25;11.40;99.90
4811;DHT22;2419;51.276;6.472;2024-02-14T09:29:53;11.40;99.90
4811;DHT22;2419;51.276;6.472;2024-02-14T09:32:23;11.40;99.90
4811;DHT22;2419;51.276;6.472;2024-02-14T09:34:51;11.40;99.90
4811;DHT22;2419;51.276;6.472;2024-02-14T09:37:19;11.40;99.90
4811;DHT22;2419;51.276;6.472;2024-02-14T09:39:47;11.40;99.90
4811;DHT22;2419;51.276;6.472;2024-02-14T09:42:16;11.50;99.90
4811;DHT22;2419;51.276;6.472;2024-02-14T09:44:47;11.50;99.90
4811;DHT22;2419;51.276;6.472;2024-02-14T09:47:19;11.50;99.90
4811;DHT22;2419;51.276;6.472;2024-02-14T09:49:49;11.60;99.90
4811;DHT22;2419;51.276;6.472;2024-02-14T09:52:18;11.60;99.90
4811;DHT22;2419;51.276;6.472;2024-02-14T09:54:47;11.60;99.90
4811;DHT22;2419;51.276;6.472;2024-02-14T09:57:16;11.60;99.90
4811;DHT22;2419;51.276;6.472;2024-02-14T09:59:45;11.70;99.90
4811;DHT22;2419;51.276;6.472;2024-02-14T10:02:13;11.80;99.90
4811;DHT22;2419;51.276;6.472;2024-02-14T10:04:41;11.80;99.90
4811;DHT22;2419;51.276;6.472;2024-02-14T10:07:11;11.80;99.90
4811;DHT22;2419;51.276;6.472;2024-02-14T10:09:42;11.90;99.90
4811;DHT22;2419;51.276;6.472;2024-02-14T10:12:11;11.90;99.90
4811;DHT22;2419;51.276;6.472;2024-02-14T10:14:39;11.90;99.90
4811;DHT22;2419;51.276;6.472;2024-02-14T10:17:17;11.80;99.90
4811;DHT22;2419;51.276;6.472;2024-02-14T10:19:55;11.60;99.90
4811;DHT22;2419;51.276;6.472;2024-02-14T10:22:27;11.70;99.90
4811;DHT22;2419;51.276;6.472;2024-02-14T10:24:59;11.70;99.90
4811;DHT22;2419;51.276;6.472;2024-02-14T10:27:27;12.00;99.90
4811;DHT22;2419;51.276;6.472;2024-02-14T10:29:56;12.50;99.90
4811;DHT22;2419;51.276;6.472;2024-02-14T10:32:24;12.50;99.90
4811;DHT22;2419;51.276;6.472;2024-02-14T10:34:52;12.50;99.90
4811;DHT22;2419;51.276;6.472;2024-02-14T10:37:21;12.30;99.90
4811;DHT22;2419;51.276;6.472;2024-02-14T10:39:52;12.30;99.90
4811;DHT22;2419;51.276;6.472;2024-02-14T10:42:21;12.30;99.90
4811;DHT22;2419;51.276;6.472;2024-02-14T10:44:49;12.30;99.90
4811;DHT22;2419;51.276;6.472;2024-02-14T10:47:20;12.50;99.90
4811;DHT22;2419;51.276;6.472;2024-02-14T10:49:48;12.50;99.90
4811;DHT22;2419;51.276;6.472;2024-02-14T10:52:18;12.60;99.90
4811;DHT22;2419;51.276;6.472;2024-02-14T10:54:54;12.80;99.90
4811;DHT22;2419;51.276;6.472;2024-02-14T10:57:24;12.60;99.90
4811;DHT22;2419;51.276;6.472;2024-02-14T10:59:53;12.80;99.90
4811;DHT22;2419;51.276;6.472;2024-02-14T11:02:22;12.90;99.90
4811;DHT22;2419;51.276;6.472;2024-02-14T11:04:51;12.80;99.90
4811;DHT22;2419;51.276;6.472;2024-02-14T11:07:20;12.90;99.90
4811;DHT22;2419;51.276;6.472;2024-02-14T11:10:04;12.90;99.90
4811;DHT22;2419;51.276;6.472;2024-02-14T11:12:33;13.00;99.90
4811;DHT22;2419;51.276;6.472;2024-02-14T11:15:09;13.20;99.90
4811;DHT22;2419;51.276;6.472;2024-02-14T11:17:39;13.20;99.90
4811;DHT22;2419;51.276;6.472;2024-02-14T11:20:17;13.50;99.90
4811;DHT22;2419;51.276;6.472;2024-02-14T11:23:00;13.50;99.90
4811;DHT22;2419;51.276;6.472;2024-02-14T11:25:32;13.40;99.90
4811;DHT22;2419;51.276;6.472;2024-02-14T11:28:12;13.40;99.90
4811;DHT22;2419;51.276;6.472;2024-02-14T11:30:42;13.60;99.90
4811;DHT22;2419;51.276;6.472;2024-02-14T11:33:14;13.30;99.90
4811;DHT22;2419;51.276;6.472;2024-02-14T11:35:43;13.20;99.90
4811;DHT22;2419;51.276;6.472;2024-02-14T11:38:12;13.20;99.90
4811;DHT22;2419;51.276;6.472;2024-02-14T11:40:42;13.00;99.90
4811;DHT22;2419;51.276;6.472;2024-02-14T11:43:11;13.00;99.90
4811;DHT22;2419;51.276;6.472;2024-02-14T11:45:41;12.90;99.90
4811;DHT22;2419;51.276;6.472;2024-02-14T11:48:11;12.80;99.90
4811;DHT22;2419;51.276;6.472;2024-02-14T11:50:40;12.60;99.90
4811;DHT22;2419;51.276;6.472;2024-02-14T11:53:10;12.60;99.90
4811;DHT22;2419;51.276;6.472;2024-02-14T11:55:38;12.50;99.90
4811;DHT22;2419;51.276;6.472;2024-02-14T11:58:09;12.40;99.90
4811;DHT22;2419;51.276;6.472;2024-02-14T12:00:37;12.20;99.90
4811;DHT22;2419;51.276;6.472;2024-02-14T12:03:08;12.30;99.90
4811;DHT22;2419;51.276;6.472;2024-02-14T12:05:37;12.30;99.90
4811;DHT22;2419;51.276;6.472;2024-02-14T12:08:06;12.30;99.90
4811;DHT22;2419;51.276;6.472;2024-02-14T12:10:36;12.30;99.90
4811;DHT22;2419;51.276;6.472;2024-02-14T12:13:08;12.30;99.90
4811;DHT22;2419;51.276;6.472;2024-02-14T12:15:39;12.20;99.90
4811;DHT22;2419;51.276;6.472;2024-02-14T12:18:08;12.20;99.90
4811;DHT22;2419;51.276;6.472;2024-02-14T12:20:37;12.20;99.90
4811;DHT22;2419;51.276;6.472;2024-02-14T12:23:05;12.30;99.90
4811;DHT22;2419;51.276;6.472;2024-02-14T12:25:34;12.20;99.90
4811;DHT22;2419;51.276;6.472;2024-02-14T12:28:02;12.30;99.90
4811;DHT22;2419;51.276;6.472;2024-02-14T12:30:43;12.20;99.90
4811;DHT22;2419;51.276;6.472;2024-02-14T12:33:12;12.20;99.90
4811;DHT22;2419;51.276;6.472;2024-02-14T12:35:42;12.30;99.90
4811;DHT22;2419;51.276;6.472;2024-02-14T12:38:11;12.30;99.90
4811;DHT22;2419;51.276;6.472;2024-02-14T12:40:40;12.30;99.90
4811;DHT22;2419;51.276;6.472;2024-02-14T12:43:09;12.40;99.90
4811;DHT22;2419;51.276;6.472;2024-02-14T12:45:40;12.40;99.90
4811;DHT22;2419;51.276;6.472;2024-02-14T12:48:09;12.50;99.90
4811;DHT22;2419;51.276;6.472;2024-02-14T12:50:39;12.60;99.90
4811;DHT22;2419;51.276;6.472;2024-02-14T12:53:11;12.70;99.90
4811;DHT22;2419;51.276;6.472;2024-02-14T12:55:39;12.80;99.90
4811;DHT22;2419;51.276;6.472;2024-02-14T12:58:07;12.70;99.90
4811;DHT22;2419;51.276;6.472;2024-02-14T13:00:36;12.80;99.90
4811;DHT22;2419;51.276;6.472;2024-02-14T13:03:06;12.80;99.90
4811;DHT22;2419;51.276;6.472;2024-02-14T13:05:34;12.80;99.90
4811;DHT22;2419;51.276;6.472;2024-02-14T13:08:03;12.80;99.90
4811;DHT22;2419;51.276;6.472;2024-02-14T13:10:32;12.80;99.90
4811;DHT22;2419;51.276;6.472;2024-02-14T13:13:00;12.80;99.90
4811;DHT22;2419;51.276;6.472;2024-02-14T13:15:28;12.80;99.90
4811;DHT22;2419;51.276;6.472;2024-02-14T13:17:57;12.80;99.90
4811;DHT22;2419;51.276;6.472;2024-02-14T13:20:27;12.80;99.90
4811;DHT22;2419;51.276;6.472;2024-02-14T13:22:56;12.80;99.90
4811;DHT22;2419;51.276;6.472;2024-02-14T13:25:24;12.70;99.90
4811;DHT22;2419;51.276;6.472;2024-02-14T13:27:53;12.50;99.90
4811;DHT22;2419;51.276;6.472;2024-02-14T13:30:21;12.40;99.90
4811;DHT22;2419;51.276;6.472;2024-02-14T13:32:50;12.30;99.90
4811;DHT22;2419;51.276;6.472;2024-02-14T13:35:19;12.20;99.90
4811;DHT22;2419;51.276;6.472;2024-02-14T13:37:48;12.10;99.90
4811;DHT22;2419;51.276;6.472;2024-02-14T13:40:17;12.10;99.90
4811;DHT22;2419;51.276;6.472;2024-02-14T13:42:45;12.20;99.90
4811;DHT22;2419;51.276;6.472;2024-02-14T13:45:13;12.10;99.90
4811;DHT22;2419;51.276;6.472;2024-02-14T13:47:43;12.20;99.90
4811;DHT22;2419;51.276;6.472;2024-02-14T13:50:11;12.20;99.90
4811;DHT22;2419;51.276;6.472;2024-02-14T13:52:40;12.20;99.90
4811;DHT22;2419;51.276;6.472;2024-02-14T13:55:09;12.20;99.90
4811;DHT22;2419;51.276;6.472;2024-02-14T13:57:38;12.20;99.90
4811;DHT22;2419;51.276;6.472;2024-02-14T14:00:08;12.10;99.90
4811;DHT22;2419;51.276;6.472;2024-02-14T14:02:39;12.10;99.90
4811;DHT22;2419;51.276;6.472;2024-02-14T14:05:10;12.00;99.90
4811;DHT22;2419;51.276;6.472;2024-02-14T14:07:41;12.00;99.90
4811;DHT22;2419;51.276;6.472;2024-02-14T14:10:25;11.90;99.90
4811;DHT22;2419;51.276;6.472;2024-02-14T14:12:55;11.90;99.90
4811;DHT22;2419;51.276;6.472;2024-02-14T14:15:23;11.80;99.90
4811;DHT22;2419;51.276;6.472;2024-02-14T14:17:53;11.80;99.90
4811;DHT22;2419;51.276;6.472;2024-02-14T14:20:21;11.70;99.90
4811;DHT22;2419;51.276;6.472;2024-02-14T14:22:49;11.70;99.90
4811;DHT22;2419;51.276;6.472;2024-02-14T14:25:17;11.60;99.90
4811;DHT22;2419;51.276;6.472;2024-02-14T14:27:47;11.60;99.90
4811;DHT22;2419;51.276;6.472;2024-02-14T14:30:15;11.60;99.90
4811;DHT22;2419;51.276;6.472;2024-02-14T14:32:43;11.60;99.90
4811;DHT22;2419;51.276;6.472;2024-02-14T14:35:11;11.70;99.90
4811;DHT22;2419;51.276;6.472;2024-02-14T14:37:39;11.70;99.90
4811;DHT22;2419;51.276;6.472;2024-02-14T14:40:08;11.70;99.90
4811;DHT22;2419;51.276;6.472;2024-02-14T14:42:37;11.70;99.90
4811;DHT22;2419;51.276;6.472;2024-02-14T14:45:06;11.70;99.90
4811;DHT22;2419;51.276;6.472;2024-02-14T14:47:35;11.70;99.90
4811;DHT22;2419;51.276;6.472;2024-02-14T14:50:05;11.70;99.90
4811;DHT22;2419;51.276;6.472;2024-02-14T14:52:34;11.70;99.90
4811;DHT22;2419;51.276;6.472;2024-02-14T14:55:03;11.70;99.90
4811;DHT22;2419;51.276;6.472;2024-02-14T14:57:32;11.70;99.90
4811;DHT22;2419;51.276;6.472;2024-02-14T15:00:02;11.70;99.90
4811;DHT22;2419;51.276;6.472;2024-02-14T15:02:32;11.70;99.90
4811;DHT22;2419;51.276;6.472;2024-02-14T15:05:02;11.70;99.90
4811;DHT22;2419;51.276;6.472;2024-02-14T15:07:30;11.70;99.90
4811;DHT22;2419;51.276;6.472;2024-02-14T15:09:58;11.80;99.90
4811;DHT22;2419;51.276;6.472;2024-02-14T15:12:26;11.80;99.90
4811;DHT22;2419;51.276;6.472;2024-02-14T15:14:54;11.80;99.90
4811;DHT22;2419;51.276;6.472;2024-02-14T15:17:23;11.80;99.90
4811;DHT22;2419;51.276;6.472;2024-02-14T15:19:52;11.80;99.90
4811;DHT22;2419;51.276;6.472;2024-02-14T15:22:20;11.80;99.90
4811;DHT22;2419;51.276;6.472;2024-02-14T15:24:50;11.80;99.90
4811;DHT22;2419;51.276;6.472;2024-02-14T15:27:18;11.80;99.90
4811;DHT22;2419;51.276;6.472;2024-02-14T15:29:50;11.80;99.90
4811;DHT22;2419;51.276;6.472;2024-02-14T15:32:36;11.80;99.90
4811;DHT22;2419;51.276;6.472;2024-02-14T15:35:23;11.90;99.90
4811;DHT22;2419;51.276;6.472;2024-02-14T15:37:51;11.90;99.90
4811;DHT22;2419;51.276;6.472;2024-02-14T15:40:20;11.90;99.90
4811;DHT22;2419;51.276;6.472;2024-02-14T15:42:49;11.90;99.90
4811;DHT22;2419;51.276;6.472;2024-02-14T15:45:17;11.90;99.90
4811;DHT22;2419;51.276;6.472;2024-02-14T15:47:46;11.90;99.90
4811;DHT22;2419;51.276;6.472;2024-02-14T15:50:15;11.90;99.90
4811;DHT22;2419;51.276;6.472;2024-02-14T15:52:44;11.80;99.90
4811;DHT22;2419;51.276;6.472;2024-02-14T15:55:12;11.90;99.90
4811;DHT22;2419;51.276;6.472;2024-02-14T15:57:40;11.90;99.90
4811;DHT22;2419;51.276;6.472;2024-02-14T16:00:10;11.90;99.90
4811;DHT22;2419;51.276;6.472;2024-02-14T16:02:38;11.90;99.90
4811;DHT22;2419;51.276;6.472;2024-02-14T16:05:07;11.90;99.90
4811;DHT22;2419;51.276;6.472;2024-02-14T16:07:36;11.90;99.90
4811;DHT22;2419;51.276;6.472;2024-02-14T16:10:07;11.80;99.90
4811;DHT22;2419;51.276;6.472;2024-02-14T16:12:35;11.90;99.90
4811;DHT22;2419;51.276;6.472;2024-02-14T16:15:04;11.90;99.90
4811;DHT22;2419;51.276;6.472;2024-02-14T16:17:32;11.80;99.90
4811;DHT22;2419;51.276;6.472;2024-02-14T16:20:00;11.80;99.90
4811;DHT22;2419;51.276;6.472;2024-02-14T16:22:29;11.80;99.90